< < Back
Terminal Aerodrome Forecast


Current Version              Previous Versions:   1  2  3  4  5  6  7  8  9  

Terminal Aerodrome Forecast

288
FTUS42 KMLB 011700
TAFDAB
TAF
KDAB 011737Z 0118/0218 VRB03KT P6SM VCSH FEW028 BKN070
      TEMPO 0118/0122 3SM SHRA BKN020
     FM020300 05003KT P6SM SCT012 BKN030
     FM020800 35003KT P6SM BKN025=



Latest METAR

823
SAUS80 KWBC 020400
MTRDAB
METAR KDAB 020353Z 13004KT 10SM FEW018 BKN034CB 26/23 A3000 RMK AO2
SLP157 CB OHD-E-S MOV W VCSH S T02560233


USA.gov is the U.S. government's official web portal to all federal, state and local government web resources and services.